Etusivu
METAR-TAF:

METAR-TAF

Lentoasemat :

Faro, Yukon, Kanada

Leveyspiiri: 62-12N, Pituuspiiri: 133-22W, korkeus merenpinnasta: 717 m

Tämänhetkinen sää

Tämä raportti tehtiin 9 tuntia ja 1 minuuttia sitten, kello 01.00 UTC
Tuuli 9 kn luoteesta puuskistuen 15 kn:hen, vaihdellen lännen ja pohjoisen/luoteen välillä
Lämpötila 18°C
Kosteus 45%
Ilmanpaine 1016 hPa
Näkyvyys: 48.3 km
Muutamia pilviä 5200 ft:n korkeudessa
Hajanaisia pilviä 6600 ft:n korkeudessa
Hajonneita pilviä 14000 ft:n korkeudessa
Hajonneita pilviä 20000 ft:n korkeudessa

METAR: CZFA 120100Z 31009G15KT 280V340 30SM FEW052 SCT066 BKN140 BKN200 18/06 A2999 RMK SC1AC3AC1CI2 LAST STFD OBS/NXT 121300Z SLP170 DENSITY ALT 3200FT

Aika: 03:01 (10:01 UTC)


TAF: puuttuu

Säähavainnot ja -ennusteet yli 4000 lentoasemalta (METAR- ja TAF-raportit).

Käytössä olevat sääasemat on merkitty karttaan keltaisilla ja punaisilla pisteillä.

Aseta hiiri pisteen päälle nähdäksesi sääaseman nimen.

Klikkaa sitten nähdäksesi säähavainnot ja -ennusteet.

Kartan vaihtaminen: klikkaa mustalla rastilla varustettuja vihreitä pisteitä, niin voit zoomata sisään; viivalla varustettua vihreää pistettä, niin voit zoomata ulos tai vihreitä nuolia, niin pääset viereisille kartoille.


METAR-TAF: